sensor_id;sensor_type;location;lat;lon;timestamp;temperature;humidity
19252;DHT22;9760;50.944;5.304;2023-03-14T00:02:08;10.90;99.90
19252;DHT22;9760;50.944;5.304;2023-03-14T00:04:34;10.90;99.90
19252;DHT22;9760;50.944;5.304;2023-03-14T00:07:00;10.90;99.90
19252;DHT22;9760;50.944;5.304;2023-03-14T00:09:26;10.90;99.90
19252;DHT22;9760;50.944;5.304;2023-03-14T00:11:53;10.80;99.90
19252;DHT22;9760;50.944;5.304;2023-03-14T00:14:18;10.80;99.90
19252;DHT22;9760;50.944;5.304;2023-03-14T00:16:47;10.90;99.90
19252;DHT22;9760;50.944;5.304;2023-03-14T00:19:13;10.90;99.90
19252;DHT22;9760;50.944;5.304;2023-03-14T00:21:38;10.90;99.90
19252;DHT22;9760;50.944;5.304;2023-03-14T00:24:04;10.90;99.90
19252;DHT22;9760;50.944;5.304;2023-03-14T00:26:31;10.80;99.90
19252;DHT22;9760;50.944;5.304;2023-03-14T00:28:57;10.80;99.90
19252;DHT22;9760;50.944;5.304;2023-03-14T00:31:23;10.90;99.90
19252;DHT22;9760;50.944;5.304;2023-03-14T00:33:50;10.80;99.90
19252;DHT22;9760;50.944;5.304;2023-03-14T00:36:17;10.80;99.90
19252;DHT22;9760;50.944;5.304;2023-03-14T00:38:45;10.80;99.90
19252;DHT22;9760;50.944;5.304;2023-03-14T00:41:14;10.70;99.90
19252;DHT22;9760;50.944;5.304;2023-03-14T00:43:40;10.60;99.90
19252;DHT22;9760;50.944;5.304;2023-03-14T00:46:06;10.70;99.90
19252;DHT22;9760;50.944;5.304;2023-03-14T00:48:32;10.70;99.90
19252;DHT22;9760;50.944;5.304;2023-03-14T00:50:58;10.70;99.90
19252;DHT22;9760;50.944;5.304;2023-03-14T00:53:24;10.70;99.90
19252;DHT22;9760;50.944;5.304;2023-03-14T00:55:50;10.70;99.90
19252;DHT22;9760;50.944;5.304;2023-03-14T00:58:17;10.60;99.90
19252;DHT22;9760;50.944;5.304;2023-03-14T01:00:44;10.70;99.90
19252;DHT22;9760;50.944;5.304;2023-03-14T01:03:11;10.70;99.90
19252;DHT22;9760;50.944;5.304;2023-03-14T01:05:37;10.70;99.90
19252;DHT22;9760;50.944;5.304;2023-03-14T01:08:03;10.70;99.90
19252;DHT22;9760;50.944;5.304;2023-03-14T01:10:29;10.70;99.90
19252;DHT22;9760;50.944;5.304;2023-03-14T01:12:55;10.70;99.90
19252;DHT22;9760;50.944;5.304;2023-03-14T01:15:20;10.70;99.90
19252;DHT22;9760;50.944;5.304;2023-03-14T01:17:46;10.80;99.90
19252;DHT22;9760;50.944;5.304;2023-03-14T01:20:14;10.70;99.90
19252;DHT22;9760;50.944;5.304;2023-03-14T01:22:40;10.70;99.90
19252;DHT22;9760;50.944;5.304;2023-03-14T01:25:11;10.70;99.90
19252;DHT22;9760;50.944;5.304;2023-03-14T01:27:37;10.70;99.90
19252;DHT22;9760;50.944;5.304;2023-03-14T01:30:03;10.70;99.90
19252;DHT22;9760;50.944;5.304;2023-03-14T01:32:29;10.70;99.90
19252;DHT22;9760;50.944;5.304;2023-03-14T01:34:55;10.70;99.90
19252;DHT22;9760;50.944;5.304;2023-03-14T01:37:21;10.70;99.90
19252;DHT22;9760;50.944;5.304;2023-03-14T01:39:47;10.70;99.90
19252;DHT22;9760;50.944;5.304;2023-03-14T01:42:13;10.80;99.90
19252;DHT22;9760;50.944;5.304;2023-03-14T01:44:56;10.80;99.90
19252;DHT22;9760;50.944;5.304;2023-03-14T01:47:23;10.80;99.90
19252;DHT22;9760;50.944;5.304;2023-03-14T01:49:53;10.80;99.90
19252;DHT22;9760;50.944;5.304;2023-03-14T01:52:45;10.80;99.90
19252;DHT22;9760;50.944;5.304;2023-03-14T01:55:25;10.80;99.90
19252;DHT22;9760;50.944;5.304;2023-03-14T01:57:59;10.70;99.90
19252;DHT22;9760;50.944;5.304;2023-03-14T02:00:26;10.70;99.90
19252;DHT22;9760;50.944;5.304;2023-03-14T02:02:56;10.70;99.90
19252;DHT22;9760;50.944;5.304;2023-03-14T02:05:26;10.70;99.90
19252;DHT22;9760;50.944;5.304;2023-03-14T02:07:56;10.70;99.90
19252;DHT22;9760;50.944;5.304;2023-03-14T02:10:30;10.70;99.90
19252;DHT22;9760;50.944;5.304;2023-03-14T02:13:00;10.80;99.90
19252;DHT22;9760;50.944;5.304;2023-03-14T02:15:27;10.90;99.90
19252;DHT22;9760;50.944;5.304;2023-03-14T02:17:53;10.80;99.90
19252;DHT22;9760;50.944;5.304;2023-03-14T02:20:30;10.90;99.90
19252;DHT22;9760;50.944;5.304;2023-03-14T02:22:59;10.90;99.90
19252;DHT22;9760;50.944;5.304;2023-03-14T02:28:11;10.80;99.90
19252;DHT22;9760;50.944;5.304;2023-03-14T02:30:37;10.70;99.90
19252;DHT22;9760;50.944;5.304;2023-03-14T02:33:11;10.50;99.90
19252;DHT22;9760;50.944;5.304;2023-03-14T02:36:05;10.40;99.90
19252;DHT22;9760;50.944;5.304;2023-03-14T02:41:29;10.10;99.90
19252;DHT22;9760;50.944;5.304;2023-03-14T02:43:55;9.90;99.90
19252;DHT22;9760;50.944;5.304;2023-03-14T02:46:21;9.80;99.90
19252;DHT22;9760;50.944;5.304;2023-03-14T02:51:16;9.80;99.90
19252;DHT22;9760;50.944;5.304;2023-03-14T02:53:42;9.70;99.90
19252;DHT22;9760;50.944;5.304;2023-03-14T02:56:09;9.70;99.90
19252;DHT22;9760;50.944;5.304;2023-03-14T02:58:35;9.60;99.90
19252;DHT22;9760;50.944;5.304;2023-03-14T03:01:00;9.60;99.90
19252;DHT22;9760;50.944;5.304;2023-03-14T03:03:26;9.50;99.90
19252;DHT22;9760;50.944;5.304;2023-03-14T03:05:54;9.40;99.90
19252;DHT22;9760;50.944;5.304;2023-03-14T03:08:23;9.30;99.90
19252;DHT22;9760;50.944;5.304;2023-03-14T03:10:49;9.40;99.90
19252;DHT22;9760;50.944;5.304;2023-03-14T03:13:16;9.30;99.90
19252;DHT22;9760;50.944;5.304;2023-03-14T03:15:42;9.30;99.90
19252;DHT22;9760;50.944;5.304;2023-03-14T03:18:07;9.30;99.90
19252;DHT22;9760;50.944;5.304;2023-03-14T03:20:33;9.20;99.90
19252;DHT22;9760;50.944;5.304;2023-03-14T03:23:00;9.30;99.90
19252;DHT22;9760;50.944;5.304;2023-03-14T03:25:25;9.20;99.90
19252;DHT22;9760;50.944;5.304;2023-03-14T03:27:51;9.30;99.90
19252;DHT22;9760;50.944;5.304;2023-03-14T03:30:17;9.30;99.90
19252;DHT22;9760;50.944;5.304;2023-03-14T03:32:43;9.30;99.90
19252;DHT22;9760;50.944;5.304;2023-03-14T03:35:09;9.40;99.90
19252;DHT22;9760;50.944;5.304;2023-03-14T03:37:35;9.30;99.90
19252;DHT22;9760;50.944;5.304;2023-03-14T03:40:01;9.30;99.90
19252;DHT22;9760;50.944;5.304;2023-03-14T03:42:27;9.40;99.90
19252;DHT22;9760;50.944;5.304;2023-03-14T03:44:53;9.30;99.90
19252;DHT22;9760;50.944;5.304;2023-03-14T03:47:18;9.20;99.90
19252;DHT22;9760;50.944;5.304;2023-03-14T03:49:44;9.30;99.90
19252;DHT22;9760;50.944;5.304;2023-03-14T03:52:09;9.30;99.90
19252;DHT22;9760;50.944;5.304;2023-03-14T03:54:35;9.40;99.90
19252;DHT22;9760;50.944;5.304;2023-03-14T03:57:01;9.50;99.90
19252;DHT22;9760;50.944;5.304;2023-03-14T03:59:27;9.40;99.90
19252;DHT22;9760;50.944;5.304;2023-03-14T04:01:52;9.50;99.90
19252;DHT22;9760;50.944;5.304;2023-03-14T04:04:18;9.50;99.90
19252;DHT22;9760;50.944;5.304;2023-03-14T04:06:44;9.60;99.90
19252;DHT22;9760;50.944;5.304;2023-03-14T04:09:10;9.50;99.90
19252;DHT22;9760;50.944;5.304;2023-03-14T04:11:36;9.50;99.90
19252;DHT22;9760;50.944;5.304;2023-03-14T04:14:05;9.50;99.90
19252;DHT22;9760;50.944;5.304;2023-03-14T04:16:31;9.50;99.90
19252;DHT22;9760;50.944;5.304;2023-03-14T04:18:57;9.50;99.90
19252;DHT22;9760;50.944;5.304;2023-03-14T04:21:23;9.50;99.90
19252;DHT22;9760;50.944;5.304;2023-03-14T04:23:49;9.50;99.90
19252;DHT22;9760;50.944;5.304;2023-03-14T04:26:15;9.50;99.90
19252;DHT22;9760;50.944;5.304;2023-03-14T04:28:40;9.50;99.90
19252;DHT22;9760;50.944;5.304;2023-03-14T04:31:08;9.50;99.90
19252;DHT22;9760;50.944;5.304;2023-03-14T04:33:34;9.50;99.90
19252;DHT22;9760;50.944;5.304;2023-03-14T04:35:59;9.50;99.90
19252;DHT22;9760;50.944;5.304;2023-03-14T04:38:25;9.50;99.90
19252;DHT22;9760;50.944;5.304;2023-03-14T04:40:50;9.50;99.90
19252;DHT22;9760;50.944;5.304;2023-03-14T04:43:16;9.60;99.90
19252;DHT22;9760;50.944;5.304;2023-03-14T04:45:42;9.60;99.90
19252;DHT22;9760;50.944;5.304;2023-03-14T04:48:08;9.50;99.90
19252;DHT22;9760;50.944;5.304;2023-03-14T04:50:37;9.50;99.90
19252;DHT22;9760;50.944;5.304;2023-03-14T04:53:03;9.60;99.90
19252;DHT22;9760;50.944;5.304;2023-03-14T04:55:28;9.60;99.90
19252;DHT22;9760;50.944;5.304;2023-03-14T04:57:54;9.60;99.90
19252;DHT22;9760;50.944;5.304;2023-03-14T05:00:20;9.60;99.90
19252;DHT22;9760;50.944;5.304;2023-03-14T05:02:45;9.60;99.90
19252;DHT22;9760;50.944;5.304;2023-03-14T05:05:11;9.60;99.90
19252;DHT22;9760;50.944;5.304;2023-03-14T05:07:37;9.60;99.90
19252;DHT22;9760;50.944;5.304;2023-03-14T05:10:03;9.60;99.90
19252;DHT22;9760;50.944;5.304;2023-03-14T05:12:28;9.60;99.90
19252;DHT22;9760;50.944;5.304;2023-03-14T05:14:54;9.60;99.90
19252;DHT22;9760;50.944;5.304;2023-03-14T05:17:20;9.70;99.90
19252;DHT22;9760;50.944;5.304;2023-03-14T05:19:45;9.70;99.90
19252;DHT22;9760;50.944;5.304;2023-03-14T05:22:11;9.60;99.90
19252;DHT22;9760;50.944;5.304;2023-03-14T05:24:37;9.70;99.90
19252;DHT22;9760;50.944;5.304;2023-03-14T05:27:03;9.70;99.90
19252;DHT22;9760;50.944;5.304;2023-03-14T05:29:29;9.70;99.90
19252;DHT22;9760;50.944;5.304;2023-03-14T05:31:55;9.60;99.90
19252;DHT22;9760;50.944;5.304;2023-03-14T05:34:20;9.60;99.90
19252;DHT22;9760;50.944;5.304;2023-03-14T05:36:46;9.60;99.90
19252;DHT22;9760;50.944;5.304;2023-03-14T05:39:12;9.60;99.90
19252;DHT22;9760;50.944;5.304;2023-03-14T05:41:37;9.60;99.90
19252;DHT22;9760;50.944;5.304;2023-03-14T05:44:04;9.70;99.90
19252;DHT22;9760;50.944;5.304;2023-03-14T05:46:31;9.60;99.90
19252;DHT22;9760;50.944;5.304;2023-03-14T05:48:58;9.70;99.90
19252;DHT22;9760;50.944;5.304;2023-03-14T05:51:23;9.70;99.90
19252;DHT22;9760;50.944;5.304;2023-03-14T05:53:49;9.70;99.90
19252;DHT22;9760;50.944;5.304;2023-03-14T05:56:15;9.60;99.90
19252;DHT22;9760;50.944;5.304;2023-03-14T05:58:40;9.70;99.90
19252;DHT22;9760;50.944;5.304;2023-03-14T06:01:07;9.60;99.90
19252;DHT22;9760;50.944;5.304;2023-03-14T06:03:33;9.70;99.90
19252;DHT22;9760;50.944;5.304;2023-03-14T06:05:59;9.60;99.90
19252;DHT22;9760;50.944;5.304;2023-03-14T06:08:24;9.70;99.90
19252;DHT22;9760;50.944;5.304;2023-03-14T06:10:51;9.60;99.90
19252;DHT22;9760;50.944;5.304;2023-03-14T06:13:16;9.70;99.90
19252;DHT22;9760;50.944;5.304;2023-03-14T06:15:42;9.70;99.90
19252;DHT22;9760;50.944;5.304;2023-03-14T06:18:08;9.70;99.90
19252;DHT22;9760;50.944;5.304;2023-03-14T06:20:36;9.70;99.90
19252;DHT22;9760;50.944;5.304;2023-03-14T06:23:02;9.70;99.90
19252;DHT22;9760;50.944;5.304;2023-03-14T06:25:29;9.70;99.90
19252;DHT22;9760;50.944;5.304;2023-03-14T06:27:54;9.70;99.90
19252;DHT22;9760;50.944;5.304;2023-03-14T06:30:20;9.80;99.90
19252;DHT22;9760;50.944;5.304;2023-03-14T06:32:45;9.80;99.90
19252;DHT22;9760;50.944;5.304;2023-03-14T06:35:11;9.80;99.90
19252;DHT22;9760;50.944;5.304;2023-03-14T06:37:36;9.90;99.90
19252;DHT22;9760;50.944;5.304;2023-03-14T06:40:02;10.00;99.90
19252;DHT22;9760;50.944;5.304;2023-03-14T06:42:28;10.00;99.90
19252;DHT22;9760;50.944;5.304;2023-03-14T06:44:53;10.10;99.90
19252;DHT22;9760;50.944;5.304;2023-03-14T06:47:19;10.10;99.90
19252;DHT22;9760;50.944;5.304;2023-03-14T06:49:45;10.20;99.90
19252;DHT22;9760;50.944;5.304;2023-03-14T06:52:10;10.20;99.90
19252;DHT22;9760;50.944;5.304;2023-03-14T06:54:36;10.20;99.90
19252;DHT22;9760;50.944;5.304;2023-03-14T06:57:01;10.20;99.90
19252;DHT22;9760;50.944;5.304;2023-03-14T06:59:27;10.30;99.90
19252;DHT22;9760;50.944;5.304;2023-03-14T07:01:53;10.30;99.90
19252;DHT22;9760;50.944;5.304;2023-03-14T07:04:19;10.40;99.90
19252;DHT22;9760;50.944;5.304;2023-03-14T07:06:45;10.40;99.90
19252;DHT22;9760;50.944;5.304;2023-03-14T07:09:12;10.40;99.90
19252;DHT22;9760;50.944;5.304;2023-03-14T07:11:37;10.40;99.90
19252;DHT22;9760;50.944;5.304;2023-03-14T07:14:03;10.40;99.90
19252;DHT22;9760;50.944;5.304;2023-03-14T07:16:28;10.50;99.90
19252;DHT22;9760;50.944;5.304;2023-03-14T07:19:01;10.50;99.90
19252;DHT22;9760;50.944;5.304;2023-03-14T07:21:27;10.40;99.90
19252;DHT22;9760;50.944;5.304;2023-03-14T07:23:53;10.30;99.90
19252;DHT22;9760;50.944;5.304;2023-03-14T07:26:18;10.20;99.90
19252;DHT22;9760;50.944;5.304;2023-03-14T07:28:44;10.30;99.90
19252;DHT22;9760;50.944;5.304;2023-03-14T07:31:10;10.10;99.90
19252;DHT22;9760;50.944;5.304;2023-03-14T07:33:35;10.10;99.90
19252;DHT22;9760;50.944;5.304;2023-03-14T07:36:01;10.10;99.90
19252;DHT22;9760;50.944;5.304;2023-03-14T07:38:27;10.10;99.90
19252;DHT22;9760;50.944;5.304;2023-03-14T07:41:04;10.10;99.90
19252;DHT22;9760;50.944;5.304;2023-03-14T07:43:30;10.10;99.90
19252;DHT22;9760;50.944;5.304;2023-03-14T07:45:56;10.10;99.90
19252;DHT22;9760;50.944;5.304;2023-03-14T07:48:22;10.10;99.90
19252;DHT22;9760;50.944;5.304;2023-03-14T07:50:51;10.00;99.90
19252;DHT22;9760;50.944;5.304;2023-03-14T07:53:17;10.00;99.90
19252;DHT22;9760;50.944;5.304;2023-03-14T07:55:43;9.50;99.90
19252;DHT22;9760;50.944;5.304;2023-03-14T07:58:09;8.80;99.90
19252;DHT22;9760;50.944;5.304;2023-03-14T08:00:34;8.40;99.90
19252;DHT22;9760;50.944;5.304;2023-03-14T08:03:00;8.20;99.90
19252;DHT22;9760;50.944;5.304;2023-03-14T08:05:26;8.20;99.90
19252;DHT22;9760;50.944;5.304;2023-03-14T08:07:52;8.10;99.90
19252;DHT22;9760;50.944;5.304;2023-03-14T08:10:18;8.00;99.90
19252;DHT22;9760;50.944;5.304;2023-03-14T08:12:53;7.90;99.90
19252;DHT22;9760;50.944;5.304;2023-03-14T08:15:19;7.90;99.90
19252;DHT22;9760;50.944;5.304;2023-03-14T08:17:45;7.80;99.90
19252;DHT22;9760;50.944;5.304;2023-03-14T08:20:11;7.70;99.90
19252;DHT22;9760;50.944;5.304;2023-03-14T08:22:37;7.60;99.90
19252;DHT22;9760;50.944;5.304;2023-03-14T08:25:04;7.50;99.90
19252;DHT22;9760;50.944;5.304;2023-03-14T08:27:29;7.50;99.90
19252;DHT22;9760;50.944;5.304;2023-03-14T08:29:55;7.50;99.90
19252;DHT22;9760;50.944;5.304;2023-03-14T08:32:24;7.50;99.90
19252;DHT22;9760;50.944;5.304;2023-03-14T08:34:49;7.40;99.90
19252;DHT22;9760;50.944;5.304;2023-03-14T08:37:15;7.40;99.90
19252;DHT22;9760;50.944;5.304;2023-03-14T08:39:41;7.30;99.90
19252;DHT22;9760;50.944;5.304;2023-03-14T08:42:06;7.40;99.90
19252;DHT22;9760;50.944;5.304;2023-03-14T08:44:32;7.40;99.90
19252;DHT22;9760;50.944;5.304;2023-03-14T08:46:59;7.30;99.90
19252;DHT22;9760;50.944;5.304;2023-03-14T08:49:24;7.40;99.90
19252;DHT22;9760;50.944;5.304;2023-03-14T08:51:50;7.50;99.90
19252;DHT22;9760;50.944;5.304;2023-03-14T08:54:15;7.50;99.90
19252;DHT22;9760;50.944;5.304;2023-03-14T08:56:41;7.40;99.90
19252;DHT22;9760;50.944;5.304;2023-03-14T08:59:07;7.50;99.90
19252;DHT22;9760;50.944;5.304;2023-03-14T09:01:33;7.50;99.90
19252;DHT22;9760;50.944;5.304;2023-03-14T09:03:59;7.50;99.90
19252;DHT22;9760;50.944;5.304;2023-03-14T09:06:24;7.60;99.90
19252;DHT22;9760;50.944;5.304;2023-03-14T09:08:50;7.60;99.90
19252;DHT22;9760;50.944;5.304;2023-03-14T09:11:15;7.70;99.90
19252;DHT22;9760;50.944;5.304;2023-03-14T09:13:41;7.80;99.90
19252;DHT22;9760;50.944;5.304;2023-03-14T09:16:07;7.80;99.90
19252;DHT22;9760;50.944;5.304;2023-03-14T09:18:33;7.80;99.90
19252;DHT22;9760;50.944;5.304;2023-03-14T09:20:59;7.70;99.90
19252;DHT22;9760;50.944;5.304;2023-03-14T09:23:24;7.80;99.90
19252;DHT22;9760;50.944;5.304;2023-03-14T09:25:57;7.80;99.90
19252;DHT22;9760;50.944;5.304;2023-03-14T09:28:24;7.80;99.90
19252;DHT22;9760;50.944;5.304;2023-03-14T09:30:50;7.80;99.90
19252;DHT22;9760;50.944;5.304;2023-03-14T09:33:17;8.00;99.90
19252;DHT22;9760;50.944;5.304;2023-03-14T09:35:42;8.00;99.90
19252;DHT22;9760;50.944;5.304;2023-03-14T09:38:08;8.00;99.90
19252;DHT22;9760;50.944;5.304;2023-03-14T09:40:35;8.00;99.90
19252;DHT22;9760;50.944;5.304;2023-03-14T09:43:01;8.10;99.90
19252;DHT22;9760;50.944;5.304;2023-03-14T09:45:36;8.10;99.90
19252;DHT22;9760;50.944;5.304;2023-03-14T09:48:03;8.00;99.90
19252;DHT22;9760;50.944;5.304;2023-03-14T09:50:37;7.80;99.90
19252;DHT22;9760;50.944;5.304;2023-03-14T09:53:06;7.70;99.90
19252;DHT22;9760;50.944;5.304;2023-03-14T09:55:34;7.70;99.90
19252;DHT22;9760;50.944;5.304;2023-03-14T09:58:05;7.70;99.90
19252;DHT22;9760;50.944;5.304;2023-03-14T10:00:35;7.80;99.90
19252;DHT22;9760;50.944;5.304;2023-03-14T10:05:40;7.60;99.90
19252;DHT22;9760;50.944;5.304;2023-03-14T10:08:15;7.30;99.90
19252;DHT22;9760;50.944;5.304;2023-03-14T10:10:42;7.00;99.90
19252;DHT22;9760;50.944;5.304;2023-03-14T10:13:13;7.00;99.90
19252;DHT22;9760;50.944;5.304;2023-03-14T10:15:39;7.00;99.90
19252;DHT22;9760;50.944;5.304;2023-03-14T10:18:11;7.10;99.90
19252;DHT22;9760;50.944;5.304;2023-03-14T10:20:44;7.30;99.90
19252;DHT22;9760;50.944;5.304;2023-03-14T10:25:45;7.60;99.90
19252;DHT22;9760;50.944;5.304;2023-03-14T10:28:28;7.50;99.90
19252;DHT22;9760;50.944;5.304;2023-03-14T10:30:56;7.50;99.90
19252;DHT22;9760;50.944;5.304;2023-03-14T10:33:23;7.60;99.90
19252;DHT22;9760;50.944;5.304;2023-03-14T10:36:02;7.60;99.90
19252;DHT22;9760;50.944;5.304;2023-03-14T10:38:33;7.40;99.90
19252;DHT22;9760;50.944;5.304;2023-03-14T10:40:59;7.40;99.90
19252;DHT22;9760;50.944;5.304;2023-03-14T10:43:35;7.30;99.90
19252;DHT22;9760;50.944;5.304;2023-03-14T10:46:13;7.20;99.90
19252;DHT22;9760;50.944;5.304;2023-03-14T10:48:39;7.10;99.90
19252;DHT22;9760;50.944;5.304;2023-03-14T10:54:32;7.10;99.90
19252;DHT22;9760;50.944;5.304;2023-03-14T10:56:35;7.00;99.90
19252;DHT22;9760;50.944;5.304;2023-03-14T10:59:02;6.70;99.90
19252;DHT22;9760;50.944;5.304;2023-03-14T11:01:55;6.70;99.90
19252;DHT22;9760;50.944;5.304;2023-03-14T11:12:49;6.80;99.90
19252;DHT22;9760;50.944;5.304;2023-03-14T11:15:34;6.70;99.90
19252;DHT22;9760;50.944;5.304;2023-03-14T11:21:13;6.90;99.90
19252;DHT22;9760;50.944;5.304;2023-03-14T11:26:46;7.30;99.90
19252;DHT22;9760;50.944;5.304;2023-03-14T11:29:32;7.60;99.90
19252;DHT22;9760;50.944;5.304;2023-03-14T11:32:03;7.80;99.90
19252;DHT22;9760;50.944;5.304;2023-03-14T11:34:51;7.60;99.90
19252;DHT22;9760;50.944;5.304;2023-03-14T11:37:28;7.60;99.90
19252;DHT22;9760;50.944;5.304;2023-03-14T11:40:17;7.30;99.90
19252;DHT22;9760;50.944;5.304;2023-03-14T11:42:48;7.00;99.90
19252;DHT22;9760;50.944;5.304;2023-03-14T11:45:25;6.90;99.90
19252;DHT22;9760;50.944;5.304;2023-03-14T11:48:10;6.60;99.90
19252;DHT22;9760;50.944;5.304;2023-03-14T11:50:39;6.60;99.90
19252;DHT22;9760;50.944;5.304;2023-03-14T11:53:11;6.70;99.90
19252;DHT22;9760;50.944;5.304;2023-03-14T11:55:41;6.80;99.90
19252;DHT22;9760;50.944;5.304;2023-03-14T11:58:34;6.90;99.90
19252;DHT22;9760;50.944;5.304;2023-03-14T12:01:09;7.00;99.90
19252;DHT22;9760;50.944;5.304;2023-03-14T12:03:45;7.20;99.90
19252;DHT22;9760;50.944;5.304;2023-03-14T12:06:28;7.30;99.90
19252;DHT22;9760;50.944;5.304;2023-03-14T12:08:58;7.60;99.90
19252;DHT22;9760;50.944;5.304;2023-03-14T12:14:26;8.00;99.90
19252;DHT22;9760;50.944;5.304;2023-03-14T12:16:58;8.00;99.90
19252;DHT22;9760;50.944;5.304;2023-03-14T12:24:27;7.90;99.90
19252;DHT22;9760;50.944;5.304;2023-03-14T12:26:56;7.60;99.90
19252;DHT22;9760;50.944;5.304;2023-03-14T12:29:23;7.10;99.90
19252;DHT22;9760;50.944;5.304;2023-03-14T12:34:44;6.30;99.90
19252;DHT22;9760;50.944;5.304;2023-03-14T12:45:33;6.30;99.90
19252;DHT22;9760;50.944;5.304;2023-03-14T12:48:11;6.20;99.90
19252;DHT22;9760;50.944;5.304;2023-03-14T12:50:43;6.00;99.90
19252;DHT22;9760;50.944;5.304;2023-03-14T12:56:21;5.80;99.90
19252;DHT22;9760;50.944;5.304;2023-03-14T12:59:12;5.70;99.90
19252;DHT22;9760;50.944;5.304;2023-03-14T13:01:47;5.70;99.90
19252;DHT22;9760;50.944;5.304;2023-03-14T13:04:18;5.80;99.90
19252;DHT22;9760;50.944;5.304;2023-03-14T13:06:55;5.90;99.90
19252;DHT22;9760;50.944;5.304;2023-03-14T13:12:17;6.00;99.90
19252;DHT22;9760;50.944;5.304;2023-03-14T13:14:48;6.00;99.90
19252;DHT22;9760;50.944;5.304;2023-03-14T13:17:18;6.00;99.90
19252;DHT22;9760;50.944;5.304;2023-03-14T13:19:51;6.10;99.90
19252;DHT22;9760;50.944;5.304;2023-03-14T13:22:25;6.30;99.90
19252;DHT22;9760;50.944;5.304;2023-03-14T13:25:05;6.40;99.90
19252;DHT22;9760;50.944;5.304;2023-03-14T13:27:34;6.40;99.90
19252;DHT22;9760;50.944;5.304;2023-03-14T13:30:05;6.50;99.90
19252;DHT22;9760;50.944;5.304;2023-03-14T13:32:41;6.70;99.90
19252;DHT22;9760;50.944;5.304;2023-03-14T13:35:27;6.70;99.90
19252;DHT22;9760;50.944;5.304;2023-03-14T13:37:58;6.70;99.90
19252;DHT22;9760;50.944;5.304;2023-03-14T13:40:34;6.70;99.90
19252;DHT22;9760;50.944;5.304;2023-03-14T13:43:10;6.60;99.90
19252;DHT22;9760;50.944;5.304;2023-03-14T13:48:15;6.70;99.90
19252;DHT22;9760;50.944;5.304;2023-03-14T13:50:46;6.60;99.90
19252;DHT22;9760;50.944;5.304;2023-03-14T13:53:14;6.80;99.90
19252;DHT22;9760;50.944;5.304;2023-03-14T13:55:40;6.90;99.90
19252;DHT22;9760;50.944;5.304;2023-03-14T13:58:13;7.10;99.90
19252;DHT22;9760;50.944;5.304;2023-03-14T14:01:03;7.10;99.90
19252;DHT22;9760;50.944;5.304;2023-03-14T14:03:36;7.20;99.90
19252;DHT22;9760;50.944;5.304;2023-03-14T14:06:03;7.10;99.90
19252;DHT22;9760;50.944;5.304;2023-03-14T14:08:30;7.20;99.90
19252;DHT22;9760;50.944;5.304;2023-03-14T14:10:59;7.20;99.90
19252;DHT22;9760;50.944;5.304;2023-03-14T14:13:27;7.00;99.90
19252;DHT22;9760;50.944;5.304;2023-03-14T14:15:55;6.80;99.90
19252;DHT22;9760;50.944;5.304;2023-03-14T14:18:23;6.70;99.90
19252;DHT22;9760;50.944;5.304;2023-03-14T14:20:51;6.60;99.90
19252;DHT22;9760;50.944;5.304;2023-03-14T14:23:26;6.50;99.90
19252;DHT22;9760;50.944;5.304;2023-03-14T14:25:57;6.60;99.90
19252;DHT22;9760;50.944;5.304;2023-03-14T14:33:43;6.70;99.90
19252;DHT22;9760;50.944;5.304;2023-03-14T14:36:19;6.70;99.90
19252;DHT22;9760;50.944;5.304;2023-03-14T14:38:50;6.80;99.90
19252;DHT22;9760;50.944;5.304;2023-03-14T14:41:16;6.70;99.90
19252;DHT22;9760;50.944;5.304;2023-03-14T14:43:41;6.70;99.90
19252;DHT22;9760;50.944;5.304;2023-03-14T14:46:08;6.60;99.90
19252;DHT22;9760;50.944;5.304;2023-03-14T14:48:37;6.70;99.90
19252;DHT22;9760;50.944;5.304;2023-03-14T14:51:05;6.70;99.90
19252;DHT22;9760;50.944;5.304;2023-03-14T14:53:39;6.90;99.90
19252;DHT22;9760;50.944;5.304;2023-03-14T14:56:14;6.80;99.90
19252;DHT22;9760;50.944;5.304;2023-03-14T14:58:43;6.80;99.90
19252;DHT22;9760;50.944;5.304;2023-03-14T15:01:21;6.90;99.90
19252;DHT22;9760;50.944;5.304;2023-03-14T15:03:52;6.90;99.90
19252;DHT22;9760;50.944;5.304;2023-03-14T15:06:18;6.90;99.90
19252;DHT22;9760;50.944;5.304;2023-03-14T15:08:47;6.90;99.90
19252;DHT22;9760;50.944;5.304;2023-03-14T15:11:24;6.80;99.90
19252;DHT22;9760;50.944;5.304;2023-03-14T15:13:51;6.70;99.90
19252;DHT22;9760;50.944;5.304;2023-03-14T15:16:19;6.80;99.90
19252;DHT22;9760;50.944;5.304;2023-03-14T15:18:55;6.80;99.90
19252;DHT22;9760;50.944;5.304;2023-03-14T15:21:22;6.80;99.90
19252;DHT22;9760;50.944;5.304;2023-03-14T15:23:48;6.90;99.90
19252;DHT22;9760;50.944;5.304;2023-03-14T15:26:17;6.80;99.90
19252;DHT22;9760;50.944;5.304;2023-03-14T15:28:43;6.70;99.90
19252;DHT22;9760;50.944;5.304;2023-03-14T15:31:10;6.80;99.90
19252;DHT22;9760;50.944;5.304;2023-03-14T15:33:36;6.90;99.90
19252;DHT22;9760;50.944;5.304;2023-03-14T15:36:04;6.80;99.90
19252;DHT22;9760;50.944;5.304;2023-03-14T15:38:29;6.60;99.90
19252;DHT22;9760;50.944;5.304;2023-03-14T15:40:55;6.40;99.90
19252;DHT22;9760;50.944;5.304;2023-03-14T15:43:21;6.30;99.90
19252;DHT22;9760;50.944;5.304;2023-03-14T15:45:46;6.30;99.90
19252;DHT22;9760;50.944;5.304;2023-03-14T15:48:15;6.30;99.90
19252;DHT22;9760;50.944;5.304;2023-03-14T15:50:42;6.40;99.90
19252;DHT22;9760;50.944;5.304;2023-03-14T15:53:07;6.50;99.90
19252;DHT22;9760;50.944;5.304;2023-03-14T15:55:33;6.50;99.90
19252;DHT22;9760;50.944;5.304;2023-03-14T15:57:59;6.50;99.90
19252;DHT22;9760;50.944;5.304;2023-03-14T16:00:26;6.60;99.90
19252;DHT22;9760;50.944;5.304;2023-03-14T16:02:51;6.50;99.90
19252;DHT22;9760;50.944;5.304;2023-03-14T16:05:17;6.60;99.90
19252;DHT22;9760;50.944;5.304;2023-03-14T16:07:46;6.60;99.90
19252;DHT22;9760;50.944;5.304;2023-03-14T16:10:13;6.80;99.90
19252;DHT22;9760;50.944;5.304;2023-03-14T16:12:40;6.70;99.90
19252;DHT22;9760;50.944;5.304;2023-03-14T16:15:06;6.70;99.90
19252;DHT22;9760;50.944;5.304;2023-03-14T16:17:32;6.70;99.90
19252;DHT22;9760;50.944;5.304;2023-03-14T16:19:58;6.70;99.90
19252;DHT22;9760;50.944;5.304;2023-03-14T16:22:24;6.70;99.90
19252;DHT22;9760;50.944;5.304;2023-03-14T16:24:49;6.70;99.90
19252;DHT22;9760;50.944;5.304;2023-03-14T16:27:15;6.70;99.90
19252;DHT22;9760;50.944;5.304;2023-03-14T16:29:41;6.70;99.90
19252;DHT22;9760;50.944;5.304;2023-03-14T16:32:08;6.70;99.90
19252;DHT22;9760;50.944;5.304;2023-03-14T16:34:33;6.80;99.90
19252;DHT22;9760;50.944;5.304;2023-03-14T16:36:59;6.70;99.90
19252;DHT22;9760;50.944;5.304;2023-03-14T16:39:25;6.60;99.90
19252;DHT22;9760;50.944;5.304;2023-03-14T16:41:53;6.60;99.90
19252;DHT22;9760;50.944;5.304;2023-03-14T16:44:18;6.60;99.90
19252;DHT22;9760;50.944;5.304;2023-03-14T16:46:44;6.50;99.90
19252;DHT22;9760;50.944;5.304;2023-03-14T16:49:10;6.50;99.90
19252;DHT22;9760;50.944;5.304;2023-03-14T16:51:35;6.40;99.90
19252;DHT22;9760;50.944;5.304;2023-03-14T16:54:01;6.40;99.90
19252;DHT22;9760;50.944;5.304;2023-03-14T16:56:26;6.40;99.90
19252;DHT22;9760;50.944;5.304;2023-03-14T16:58:52;6.40;99.90
19252;DHT22;9760;50.944;5.304;2023-03-14T17:01:17;6.30;99.90
19252;DHT22;9760;50.944;5.304;2023-03-14T17:03:48;6.40;99.90
19252;DHT22;9760;50.944;5.304;2023-03-14T17:06:17;6.30;99.90
19252;DHT22;9760;50.944;5.304;2023-03-14T17:08:42;6.20;99.90